createdAt,value
2022-12-03T00:00:33.263Z,96.02
2022-12-03T00:05:53.197Z,96.16
2022-12-03T00:11:12.360Z,96.16
2022-12-03T00:16:32.080Z,96.07
2022-12-03T00:21:51.797Z,96.04
2022-12-03T00:27:11.260Z,96.15
2022-12-03T00:32:30.702Z,96.22
2022-12-03T00:37:58.723Z,96.2
2022-12-03T00:43:09.044Z,96.21
2022-12-03T00:48:28.280Z,96.27
2022-12-03T00:53:47.342Z,96.36
2022-12-03T00:59:14.024Z,96.42
2022-12-03T01:04:25.302Z,96.45
2022-12-03T01:09:44.635Z,96.58
2022-12-03T01:15:04.599Z,96.6
2022-12-03T01:20:24.377Z,96.53
2022-12-03T01:25:43.253Z,96.51
2022-12-03T01:31:02.198Z,96.62
2022-12-03T01:36:21.080Z,96.56
2022-12-03T01:41:40.418Z,96.45
2022-12-03T01:46:59.962Z,96.5
2022-12-03T01:52:19.467Z,96.63
2022-12-03T01:57:38.339Z,96.45
2022-12-03T02:02:57.376Z,96.42
2022-12-03T02:08:16.935Z,96.4
2022-12-03T02:13:35.615Z,96.42
2022-12-03T02:18:55.074Z,96.45
2022-12-03T02:24:14.676Z,96.61
2022-12-03T02:29:33.744Z,96.75
2022-12-03T02:34:53.730Z,96.66
2022-12-03T02:40:12.586Z,96.85
2022-12-03T02:45:40.840Z,96.76
2022-12-03T02:50:50.916Z,96.75
2022-12-03T02:56:10.247Z,96.57
2022-12-03T03:01:29.540Z,96.43
2022-12-03T03:06:48.551Z,96.46
2022-12-03T03:12:08.296Z,96.53
2022-12-03T03:17:27.495Z,96.48
2022-12-03T03:22:46.947Z,96.45
2022-12-03T03:28:06.588Z,96.4
2022-12-03T03:33:25.774Z,96.5
2022-12-03T03:38:45.511Z,96.48
2022-12-03T03:44:04.338Z,96.48
2022-12-03T03:49:24.081Z,96.6
2022-12-03T03:54:43.066Z,96.4
2022-12-03T04:00:02.099Z,96.48
2022-12-03T04:05:20.859Z,96.36
2022-12-03T04:10:39.743Z,96.38
2022-12-03T04:15:59.471Z,96.56
2022-12-03T04:21:28.437Z,96.49
2022-12-03T04:26:38.141Z,96.49
2022-12-03T04:31:57.826Z,96.57
2022-12-03T04:37:17.560Z,96.66
2022-12-03T04:42:37.349Z,96.54
2022-12-03T04:47:56.376Z,96.73
2022-12-03T04:53:15.506Z,96.81
2022-12-03T04:58:35.045Z,96.67
2022-12-03T05:03:53.929Z,96.79
2022-12-03T05:09:13.107Z,96.95
2022-12-03T05:14:42.998Z,96.91
2022-12-03T05:19:51.864Z,96.85
2022-12-03T05:25:20.113Z,96.96
2022-12-03T05:30:30.290Z,96.99
2022-12-03T05:35:49.552Z,96.96
2022-12-03T05:41:08.917Z,97.01
2022-12-03T05:46:28.982Z,97.05
2022-12-03T05:51:48.127Z,97.01
2022-12-03T05:57:08.050Z,96.99
2022-12-03T06:02:27.262Z,96.94
2022-12-03T06:07:46.225Z,96.94
2022-12-03T06:13:05.995Z,96.9
2022-12-03T06:18:25.284Z,96.96
2022-12-03T06:23:44.318Z,96.82
2022-12-03T06:29:03.543Z,96.58
2022-12-03T06:34:31.307Z,96.69
2022-12-03T06:39:51.929Z,96.76
2022-12-03T06:45:02.371Z,96.78
2022-12-03T06:50:21.321Z,96.74
2022-12-03T06:55:40.221Z,96.76
2022-12-03T07:00:59.579Z,96.67
2022-12-03T07:06:18.729Z,96.57
2022-12-03T07:11:38.597Z,96.46
2022-12-03T07:16:57.441Z,96.5
2022-12-03T07:22:16.716Z,96.4
2022-12-03T07:27:35.936Z,96.39
2022-12-03T07:32:54.779Z,96.38
2022-12-03T07:38:14.168Z,96.41
2022-12-03T07:43:33.987Z,96.38
2022-12-03T07:48:53.695Z,96.21
2022-12-03T07:54:12.444Z,96.17
2022-12-03T07:59:31.285Z,95.96
2022-12-03T08:04:58.853Z,95.89
2022-12-03T08:10:18.922Z,95.91
2022-12-03T08:15:33.783Z,95.8
2022-12-03T08:20:48.937Z,96.11
2022-12-03T08:26:08.322Z,96.11
2022-12-03T08:31:33.099Z,95.84
2022-12-03T08:36:46.868Z,95.68
2022-12-03T08:42:10.691Z,95.67
2022-12-03T08:47:26.465Z,95.52
2022-12-03T08:52:45.686Z,95.32
2022-12-03T08:58:05.389Z,95.15
2022-12-03T09:03:24.999Z,95.24
2022-12-03T09:08:43.928Z,95.09
2022-12-03T09:14:03.590Z,94.99
2022-12-03T09:19:31.410Z,95.1
2022-12-03T09:24:41.337Z,95.06
2022-12-03T09:30:08.843Z,95.05
2022-12-03T09:35:19.920Z,94.7
2022-12-03T09:40:38.972Z,94.71
2022-12-03T09:45:58.517Z,94.74
2022-12-03T09:51:18.041Z,94.33
2022-12-03T09:56:37.493Z,94.27
2022-12-03T10:01:56.576Z,93.76
2022-12-03T10:07:15.575Z,93.7
2022-12-03T10:12:35.354Z,93.48
2022-12-03T10:17:55.116Z,93.67
2022-12-03T10:23:14.488Z,92.82
2022-12-03T10:28:33.506Z,92.85
2022-12-03T10:33:52.797Z,92.48
2022-12-03T10:39:12.015Z,91.91
2022-12-03T10:44:30.923Z,91.51
2022-12-03T10:49:50.060Z,90.7
2022-12-03T10:55:42.085Z,90.89
2022-12-03T11:01:01.524Z,90.06
2022-12-03T11:06:20.723Z,89.84
2022-12-03T11:11:40.455Z,89.28
2022-12-03T11:17:00.157Z,89.23
2022-12-03T11:22:19.588Z,88.56
2022-12-03T11:27:39.148Z,89.01
2022-12-03T11:32:58.059Z,89.23
2022-12-03T11:38:17.075Z,89.25
2022-12-03T11:43:36.837Z,89.17
2022-12-03T11:48:56.135Z,89.16
2022-12-03T11:54:15.765Z,88.81
2022-12-03T11:59:35.526Z,87.8
2022-12-03T12:04:54.583Z,87.68
2022-12-03T12:10:12.447Z,88.02
2022-12-03T12:15:31.602Z,87.79
2022-12-03T12:20:50.947Z,88.52
2022-12-03T12:26:09.942Z,88.95
2022-12-03T12:31:29.621Z,88.9
2022-12-03T12:36:48.370Z,89.41
2022-12-03T12:42:08.391Z,89.54
2022-12-03T12:47:27.462Z,89.69
2022-12-03T12:52:46.959Z,89.66
2022-12-03T12:58:07.412Z,90.1
2022-12-03T13:03:26.450Z,90.45
2022-12-03T13:08:46.130Z,90.64
2022-12-03T13:14:05.209Z,90.44
2022-12-03T13:19:24.556Z,89.72
2022-12-03T13:24:53.308Z,89.73
2022-12-03T13:30:02.772Z,89.73
2022-12-03T13:35:22.185Z,89.93
2022-12-03T13:40:41.440Z,90.32
2022-12-03T13:46:00.526Z,89.99
2022-12-03T13:51:20.302Z,89.91
2022-12-03T13:56:39.657Z,90.04
2022-12-03T14:01:58.776Z,89.47
2022-12-03T14:07:17.813Z,89.73
2022-12-03T14:12:36.891Z,89.84
2022-12-03T14:17:55.749Z,90.41
2022-12-03T14:23:15.560Z,90.54
2022-12-03T14:28:35.056Z,90.53
2022-12-03T14:33:53.864Z,90.33
2022-12-03T14:39:12.727Z,89.99
2022-12-03T14:44:32.059Z,90.52
2022-12-03T14:49:51.948Z,90.28
2022-12-03T14:55:10.499Z,89.94
2022-12-03T15:00:37.137Z,89.73
2022-12-03T15:05:48.588Z,89.6
2022-12-03T15:11:08.139Z,89.74
2022-12-03T15:16:27.399Z,90.24
2022-12-03T15:21:46.453Z,90.57
2022-12-03T15:27:05.984Z,90.7
2022-12-03T15:32:25.081Z,90.87
2022-12-03T15:37:44.054Z,90.49
2022-12-03T15:43:03.646Z,90.72
2022-12-03T15:48:23.422Z,91.06
2022-12-03T15:53:42.452Z,90.78
2022-12-03T15:59:01.705Z,90.36
2022-12-03T16:04:20.660Z,90.06
2022-12-03T16:09:40.084Z,90.19
2022-12-03T16:14:59.688Z,90.72
2022-12-03T16:20:19.317Z,90.74
2022-12-03T16:25:39.074Z,90.79
2022-12-03T16:30:58.216Z,90.11
2022-12-03T16:36:17.937Z,90.06
2022-12-03T16:41:37.509Z,90.14
2022-12-03T16:46:56.394Z,89.65
2022-12-03T16:52:15.403Z,89.55
2022-12-03T16:57:34.982Z,89.47
2022-12-03T17:02:54.444Z,89.77
2022-12-03T17:08:13.340Z,89.9
2022-12-03T17:13:32.301Z,89.92
2022-12-03T17:18:51.377Z,90.07
2022-12-03T17:24:10.751Z,90.3
2022-12-03T17:29:30.519Z,90.24
2022-12-03T17:34:49.891Z,90.31
2022-12-03T17:40:09.214Z,90.28
2022-12-03T17:45:36.138Z,89.69
2022-12-03T17:50:47.880Z,89.36
2022-12-03T17:56:15.669Z,89.61
2022-12-03T18:01:26.349Z,90.15
2022-12-03T18:06:45.987Z,90.36
2022-12-03T18:12:05.102Z,90.4
2022-12-03T18:17:24.272Z,90.3
2022-12-03T18:22:43.119Z,89.72
2022-12-03T18:28:02.188Z,89.63
2022-12-03T18:33:21.708Z,89.88
2022-12-03T18:38:41.461Z,90.42
2022-12-03T18:44:08.736Z,90.76
2022-12-03T18:49:19.532Z,90.66
2022-12-03T18:59:58.954Z,90.65
2022-12-03T19:05:18.550Z,90.97
2022-12-03T19:10:37.369Z,91.3
2022-12-03T19:15:57.032Z,91.49
2022-12-03T19:21:16.364Z,91.7
2022-12-03T19:26:35.874Z,91.77
2022-12-03T19:31:55.444Z,91.83
2022-12-03T19:37:13.996Z,91.91
2022-12-03T19:42:33.456Z,92.16
2022-12-03T19:47:52.724Z,92
2022-12-03T19:53:12.116Z,92.26
2022-12-03T19:58:39.125Z,92.36
2022-12-03T20:03:50.178Z,92.42
2022-12-03T20:09:09.731Z,92.75
2022-12-03T20:14:28.527Z,92.71
2022-12-03T20:19:47.569Z,92.95
2022-12-03T20:25:07.086Z,92.74
2022-12-03T20:30:26.008Z,92.92
2022-12-03T20:35:45.701Z,92.91
2022-12-03T20:41:05.432Z,92.34
2022-12-03T20:46:33.372Z,92.23
2022-12-03T20:51:43.652Z,92.18
2022-12-03T20:57:02.207Z,92.31
2022-12-03T21:02:21.562Z,91.84
2022-12-03T21:07:40.318Z,91.88
2022-12-03T21:13:09.008Z,91.96
2022-12-03T21:18:19.248Z,92.05
2022-12-03T21:23:38.162Z,91.88
2022-12-03T21:28:58.141Z,91.93
2022-12-03T21:34:17.332Z,91.83
2022-12-03T21:39:36.130Z,91.95
2022-12-03T21:44:55.370Z,92.19
2022-12-03T21:50:14.234Z,91.94
2022-12-03T21:55:33.403Z,91.76
2022-12-03T22:00:52.401Z,91.71
2022-12-03T22:06:12.125Z,91.9
2022-12-03T22:11:31.629Z,91.73
2022-12-03T22:16:51.052Z,91.89
2022-12-03T22:22:10.416Z,92.1
2022-12-03T22:27:29.498Z,92.11
2022-12-03T22:32:48.500Z,91.61
2022-12-03T22:38:08.320Z,91.87
2022-12-03T22:43:27.410Z,91.54
2022-12-03T22:48:46.550Z,91.57
2022-12-03T22:54:05.755Z,91.38
2022-12-03T22:59:25.251Z,91.45
2022-12-03T23:04:44.845Z,91.45
2022-12-03T23:10:04.685Z,91.58
2022-12-03T23:15:24.827Z,91.54
2022-12-03T23:20:44.048Z,91.75
2022-12-03T23:26:02.734Z,91.64
2022-12-03T23:31:22.532Z,91.64
2022-12-03T23:36:41.424Z,91.44
2022-12-03T23:42:00.425Z,91.34
2022-12-03T23:47:20.153Z,91.39
2022-12-03T23:52:39.498Z,91.49
2022-12-03T23:57:58.935Z,91.71
